createdAt,value
2019-03-01T00:01:54.281Z,3.07
2019-03-01T00:04:54.514Z,3.50
2019-03-01T00:08:09.123Z,3.00
2019-03-01T00:11:16.945Z,3.43
2019-03-01T00:14:29.770Z,3.30
2019-03-01T00:17:34.324Z,3.40
2019-03-01T00:20:16.739Z,3.13
2019-03-01T00:23:12.192Z,3.60
2019-03-01T00:26:27.386Z,3.30
2019-03-01T00:29:21.506Z,3.50
2019-03-01T00:32:22.362Z,3.10
2019-03-01T00:35:31.387Z,3.33
2019-03-01T00:38:25.569Z,3.40
2019-03-01T00:41:16.272Z,3.60
2019-03-01T00:44:50.608Z,2.77
2019-03-01T00:47:16.035Z,2.93
2019-03-01T00:49:44.711Z,3.17
2019-03-01T00:52:11.553Z,3.00
2019-03-01T00:54:38.252Z,3.07
2019-03-01T00:57:05.643Z,2.93
2019-03-01T00:59:32.837Z,2.80
2019-03-01T01:01:59.571Z,3.80
2019-03-01T01:04:26.273Z,3.30
2019-03-01T01:06:53.074Z,2.70
2019-03-01T01:09:19.785Z,3.47
2019-03-01T01:11:48.829Z,2.70
2019-03-01T01:14:15.586Z,3.07
2019-03-01T01:16:42.288Z,3.10
2019-03-01T01:19:08.979Z,3.27
2019-03-01T01:21:35.793Z,3.33
2019-03-01T01:24:02.596Z,3.40
2019-03-01T01:26:29.409Z,3.23
2019-03-01T01:28:57.706Z,3.10
2019-03-01T01:31:24.437Z,3.07
2019-03-01T01:33:51.183Z,2.87
2019-03-01T01:36:17.903Z,2.90
2019-03-01T01:38:44.611Z,3.20
2019-03-01T01:41:11.380Z,3.33
2019-03-01T01:43:38.164Z,3.33
2019-03-01T01:46:05.332Z,3.20
2019-03-01T01:48:32.027Z,2.70
2019-03-01T01:50:59.009Z,2.73
2019-03-01T01:53:26.975Z,3.00
2019-03-01T01:55:53.740Z,2.17
2019-03-01T01:58:20.854Z,3.00
2019-03-01T02:00:47.565Z,3.27
2019-03-01T02:03:14.340Z,2.70
2019-03-01T02:05:43.058Z,2.77
2019-03-01T02:08:09.803Z,2.80
2019-03-01T02:10:36.490Z,2.43
2019-03-01T02:13:03.303Z,2.60
2019-03-01T02:15:33.015Z,2.50
2019-03-01T02:17:59.755Z,2.70
2019-03-01T02:20:26.512Z,2.43
2019-03-01T02:22:55.121Z,2.03
2019-03-01T02:25:21.854Z,2.40
2019-03-01T02:27:49.034Z,2.40
2019-03-01T02:30:19.570Z,2.80
2019-03-01T02:32:47.823Z,2.90
2019-03-01T02:35:19.296Z,2.50
2019-03-01T02:37:46.362Z,3.00
2019-03-01T02:40:13.119Z,2.73
2019-03-01T02:42:42.753Z,3.00
2019-03-01T02:45:11.292Z,3.10
2019-03-01T02:47:40.325Z,2.57
2019-03-01T02:50:07.901Z,2.60
2019-03-01T02:52:34.575Z,2.87
2019-03-01T02:55:01.395Z,3.03
2019-03-01T02:57:30.296Z,3.00
2019-03-01T02:59:58.620Z,3.13
2019-03-01T03:02:25.343Z,2.63
2019-03-01T03:04:52.138Z,2.70
2019-03-01T03:07:30.261Z,2.60
2019-03-01T03:09:57.014Z,2.30
2019-03-01T03:12:24.343Z,2.80
2019-03-01T03:14:51.055Z,3.07
2019-03-01T03:17:17.779Z,2.93
2019-03-01T03:19:44.639Z,2.90
2019-03-01T03:22:11.619Z,3.00
2019-03-01T03:24:38.371Z,3.10
2019-03-01T03:27:05.194Z,2.40
2019-03-01T03:29:31.908Z,3.07
2019-03-01T03:31:58.793Z,2.90
2019-03-01T03:34:25.462Z,2.73
2019-03-01T03:36:52.368Z,3.10
2019-03-01T03:39:19.065Z,3.13
2019-03-01T03:41:45.821Z,3.03
2019-03-01T03:44:12.580Z,3.10
2019-03-01T03:46:43.322Z,3.30
2019-03-01T03:49:10.035Z,2.90
2019-03-01T03:51:36.742Z,2.77
2019-03-01T03:54:03.490Z,3.10
2019-03-01T03:56:30.203Z,2.80
2019-03-01T03:58:56.914Z,3.20
2019-03-01T04:01:23.723Z,3.40
2019-03-01T04:03:51.684Z,3.17
2019-03-01T04:06:18.387Z,3.60
2019-03-01T04:08:45.099Z,3.23
2019-03-01T04:11:12.284Z,4.10
2019-03-01T04:13:41.274Z,3.30
2019-03-01T04:16:10.118Z,4.10
2019-03-01T04:18:36.807Z,3.57
2019-03-01T04:21:06.494Z,3.53
2019-03-01T04:23:35.748Z,3.10
2019-03-01T04:26:02.458Z,3.90
2019-03-01T04:28:29.170Z,3.40
2019-03-01T04:30:55.871Z,4.10
2019-03-01T04:33:22.708Z,3.50
2019-03-01T04:35:49.394Z,3.50
2019-03-01T04:38:18.993Z,3.70
2019-03-01T04:40:45.698Z,3.20
2019-03-01T04:43:12.434Z,3.50
2019-03-01T04:45:39.188Z,3.53
2019-03-01T04:48:06.032Z,3.30
2019-03-01T04:50:32.753Z,3.30
2019-03-01T04:52:59.562Z,3.50
2019-03-01T04:55:26.280Z,3.20
2019-03-01T04:57:53.050Z,3.07
2019-03-01T05:00:21.103Z,3.67
2019-03-01T05:02:47.839Z,3.47
2019-03-01T05:05:14.979Z,3.70
2019-03-01T05:07:41.765Z,3.63
2019-03-01T05:10:12.343Z,4.17
2019-03-01T05:12:39.078Z,3.63
2019-03-01T05:15:09.162Z,3.20
2019-03-01T05:17:35.884Z,3.07
2019-03-01T05:20:02.878Z,3.67
2019-03-01T05:22:29.630Z,3.03
2019-03-01T05:24:56.372Z,3.20
2019-03-01T05:27:23.086Z,2.70
2019-03-01T05:29:49.818Z,2.90
2019-03-01T05:32:16.814Z,3.30
2019-03-01T05:34:46.410Z,2.90
2019-03-01T05:37:13.453Z,2.60
2019-03-01T05:39:40.153Z,2.60
2019-03-01T05:42:07.143Z,2.80
2019-03-01T05:44:33.856Z,2.90
2019-03-01T05:47:00.640Z,2.70
2019-03-01T05:49:27.964Z,2.23
2019-03-01T05:51:54.697Z,1.90
2019-03-01T05:54:21.574Z,1.77
2019-03-01T05:56:48.434Z,1.70
2019-03-01T05:59:20.716Z,2.07
2019-03-01T06:01:55.948Z,2.03
2019-03-01T06:04:36.321Z,1.97
2019-03-01T06:07:59.983Z,1.80
2019-03-01T06:10:59.306Z,2.20
2019-03-01T06:14:05.050Z,1.80
2019-03-01T06:16:54.779Z,1.80
2019-03-01T06:20:09.989Z,1.70
2019-03-01T06:23:21.959Z,2.50
2019-03-01T06:26:14.917Z,1.70
2019-03-01T06:29:19.269Z,2.00
2019-03-01T06:32:38.995Z,1.90
2019-03-01T06:35:46.931Z,2.27
2019-03-01T06:39:04.703Z,1.83
2019-03-01T06:41:58.894Z,1.60
2019-03-01T06:45:11.375Z,1.90
2019-03-01T06:47:48.284Z,1.80
2019-03-01T06:50:19.715Z,1.90
2019-03-01T06:52:46.444Z,1.93
2019-03-01T06:55:40.253Z,2.47
2019-03-01T06:58:09.767Z,2.10
2019-03-01T07:00:49.862Z,2.00
2019-03-01T07:03:11.315Z,1.87
2019-03-01T07:05:38.009Z,1.80
2019-03-01T07:08:04.753Z,1.93
2019-03-01T07:10:31.990Z,1.83
2019-03-01T07:12:58.716Z,2.00
2019-03-01T07:15:25.516Z,2.20
2019-03-01T07:17:52.267Z,2.07
2019-03-01T07:20:19.299Z,1.60
2019-03-01T07:22:46.027Z,1.77
2019-03-01T07:25:15.217Z,2.07
2019-03-01T07:27:42.080Z,1.40
2019-03-01T07:30:08.820Z,1.70
2019-03-01T07:32:35.588Z,1.83
2019-03-01T07:35:02.303Z,1.33
2019-03-01T07:37:29.343Z,1.57
2019-03-01T07:39:58.076Z,1.57
2019-03-01T07:42:24.946Z,1.40
2019-03-01T07:44:51.803Z,1.40
2019-03-01T07:47:18.629Z,1.20
2019-03-01T07:49:45.369Z,1.40
2019-03-01T07:52:12.080Z,1.33
2019-03-01T07:54:40.713Z,1.23
2019-03-01T07:57:07.431Z,1.50
2019-03-01T07:59:38.111Z,1.70
2019-03-01T08:02:04.115Z,1.40
2019-03-01T08:04:31.628Z,1.30
2019-03-01T08:06:58.687Z,1.27
2019-03-01T08:09:25.439Z,1.37
2019-03-01T08:11:52.225Z,1.80
2019-03-01T08:14:19.363Z,1.50
2019-03-01T08:16:46.073Z,1.70
2019-03-01T08:19:16.147Z,1.73
2019-03-01T08:21:42.785Z,1.80
2019-03-01T08:24:11.187Z,2.00
2019-03-01T08:26:38.987Z,2.03
2019-03-01T08:29:05.712Z,1.60
2019-03-01T08:31:32.508Z,2.17
2019-03-01T08:33:59.221Z,2.47
2019-03-01T08:36:25.947Z,2.30
2019-03-01T08:38:52.680Z,2.33
2019-03-01T08:41:21.527Z,2.40
2019-03-01T08:43:48.876Z,2.43
2019-03-01T08:46:17.010Z,2.50
2019-03-01T08:48:43.970Z,2.50
2019-03-01T08:51:11.103Z,2.93
2019-03-01T08:53:40.715Z,2.90
2019-03-01T08:56:10.882Z,2.43
2019-03-01T08:58:37.680Z,2.90
2019-03-01T09:01:08.348Z,3.00
2019-03-01T09:03:41.561Z,2.57
2019-03-01T09:06:08.282Z,2.53
2019-03-01T09:08:34.983Z,2.30
2019-03-01T09:11:01.666Z,2.50
2019-03-01T09:13:28.459Z,2.50
2019-03-01T09:15:55.271Z,2.00
2019-03-01T09:18:22.142Z,2.40
2019-03-01T09:20:53.356Z,2.10
2019-03-01T09:23:25.273Z,2.40
2019-03-01T09:25:49.823Z,2.40
2019-03-01T09:28:16.639Z,2.60
2019-03-01T09:30:45.904Z,3.03
2019-03-01T09:33:17.271Z,2.23
2019-03-01T09:35:52.575Z,2.40
2019-03-01T09:38:19.274Z,2.60
2019-03-01T09:40:46.075Z,2.47
2019-03-01T09:43:13.042Z,2.30
2019-03-01T09:45:39.870Z,2.47
2019-03-01T09:48:12.160Z,1.90
2019-03-01T09:50:39.949Z,1.97
2019-03-01T09:53:06.673Z,1.87
2019-03-01T09:55:37.691Z,2.00
2019-03-01T09:58:05.049Z,2.27
2019-03-01T10:00:31.903Z,2.13
2019-03-01T10:02:59.027Z,2.40
2019-03-01T10:05:26.079Z,3.13
2019-03-01T10:07:52.797Z,2.33
2019-03-01T10:10:21.691Z,2.03
2019-03-01T10:12:48.505Z,2.40
2019-03-01T10:15:15.197Z,3.53
2019-03-01T10:17:41.962Z,2.63
2019-03-01T10:20:10.698Z,2.40
2019-03-01T10:22:37.498Z,2.30
2019-03-01T10:25:04.391Z,2.30
2019-03-01T10:27:31.215Z,2.80
2019-03-01T10:29:58.072Z,2.53
2019-03-01T10:32:24.893Z,2.67
2019-03-01T10:34:52.067Z,2.70
2019-03-01T10:37:18.952Z,2.37
2019-03-01T10:39:55.263Z,2.40
2019-03-01T10:42:17.301Z,2.47
2019-03-01T10:44:44.469Z,2.40
2019-03-01T10:47:11.216Z,2.50
2019-03-01T10:49:40.050Z,2.27
2019-03-01T10:52:07.733Z,2.03
2019-03-01T10:54:34.716Z,2.20
2019-03-01T10:57:01.633Z,2.70
2019-03-01T10:59:28.519Z,2.77
2019-03-01T11:01:57.078Z,2.90
2019-03-01T11:04:23.837Z,2.47
2019-03-01T11:06:50.554Z,3.00
2019-03-01T11:09:17.256Z,3.00
2019-03-01T11:11:47.224Z,3.50
2019-03-01T11:14:14.233Z,3.33
2019-03-01T11:16:40.972Z,3.60
2019-03-01T11:19:08.224Z,4.03
2019-03-01T11:21:34.964Z,4.13
2019-03-01T11:24:02.421Z,4.10
2019-03-01T11:26:29.606Z,4.40
2019-03-01T11:28:56.388Z,4.43
2019-03-01T11:31:23.135Z,4.40
2019-03-01T11:33:50.851Z,5.50
2019-03-01T11:36:17.652Z,5.07
2019-03-01T11:38:44.419Z,5.63
2019-03-01T11:41:11.335Z,5.20
2019-03-01T11:43:38.459Z,5.20
2019-03-01T11:46:05.196Z,5.70
2019-03-01T11:48:32.143Z,5.80
2019-03-01T11:50:58.867Z,5.17
2019-03-01T11:53:25.708Z,5.50
2019-03-01T11:55:55.220Z,6.20
2019-03-01T11:58:27.048Z,5.27
2019-03-01T12:00:56.424Z,6.40
2019-03-01T12:03:23.448Z,6.20
2019-03-01T12:05:56.601Z,6.20
2019-03-01T12:08:23.828Z,7.43
2019-03-01T12:10:50.656Z,5.60
2019-03-01T12:13:17.714Z,5.20
2019-03-01T12:15:44.555Z,6.07
2019-03-01T12:18:11.318Z,6.10
2019-03-01T12:20:38.110Z,6.47
2019-03-01T12:23:04.859Z,6.07
2019-03-01T12:25:31.582Z,6.47
2019-03-01T12:28:00.447Z,6.40
2019-03-01T12:30:27.195Z,8.40
2019-03-01T12:32:53.872Z,7.30
2019-03-01T12:35:22.657Z,7.13
2019-03-01T12:37:52.752Z,6.43
2019-03-01T12:40:24.159Z,6.37
2019-03-01T12:42:50.899Z,6.63
2019-03-01T12:45:17.732Z,7.47
2019-03-01T12:47:46.336Z,7.33
2019-03-01T12:50:13.195Z,6.93
2019-03-01T12:52:42.178Z,6.90
2019-03-01T12:55:16.218Z,7.37
2019-03-01T12:57:44.483Z,8.10
2019-03-01T13:00:17.043Z,6.80
2019-03-01T13:02:46.916Z,7.40
2019-03-01T13:05:14.171Z,7.97
2019-03-01T13:07:40.946Z,7.90
2019-03-01T13:10:14.127Z,8.70
2019-03-01T13:12:42.064Z,8.67
2019-03-01T13:15:10.605Z,8.70
2019-03-01T13:17:40.359Z,8.40
2019-03-01T13:20:10.082Z,9.17
2019-03-01T13:22:36.792Z,9.70
2019-03-01T13:25:03.858Z,10.17
2019-03-01T13:27:30.617Z,9.57
2019-03-01T13:29:58.597Z,9.27
2019-03-01T13:32:25.949Z,10.20
2019-03-01T13:35:07.395Z,10.70
2019-03-01T13:37:35.980Z,10.93
2019-03-01T13:40:03.490Z,11.03
2019-03-01T13:42:30.194Z,10.17
2019-03-01T13:44:56.942Z,9.73
2019-03-01T13:47:23.651Z,9.00
2019-03-01T13:49:50.328Z,9.60
2019-03-01T13:52:17.055Z,8.23
2019-03-01T13:54:45.399Z,9.60
2019-03-01T13:57:12.593Z,8.57
2019-03-01T13:59:40.382Z,7.97
2019-03-01T14:02:08.494Z,7.23
2019-03-01T14:04:40.309Z,7.50
2019-03-01T14:07:09.934Z,7.07
2019-03-01T14:09:36.791Z,7.83
2019-03-01T14:12:03.575Z,9.10
2019-03-01T14:14:30.275Z,8.37
2019-03-01T14:16:57.096Z,10.00
2019-03-01T14:19:24.019Z,9.13
2019-03-01T14:21:51.173Z,9.87
2019-03-01T14:24:17.927Z,10.60
2019-03-01T14:26:46.588Z,12.03
2019-03-01T14:29:15.980Z,12.47
2019-03-01T14:31:43.019Z,13.13
2019-03-01T14:34:11.600Z,14.10
2019-03-01T14:36:39.867Z,15.23
2019-03-01T14:39:15.854Z,14.93
2019-03-01T14:41:46.135Z,12.30
2019-03-01T14:44:13.153Z,16.27
2019-03-01T14:46:39.916Z,18.33
2019-03-01T14:49:06.737Z,18.60
2019-03-01T14:51:33.477Z,20.03
2019-03-01T14:54:01.592Z,18.37
2019-03-01T14:56:34.839Z,21.73
2019-03-01T14:59:15.706Z,21.33
2019-03-01T15:01:47.353Z,24.90
2019-03-01T15:04:14.104Z,24.40
2019-03-01T15:06:40.904Z,23.90
2019-03-01T15:09:07.804Z,22.17
2019-03-01T15:11:37.656Z,22.80
2019-03-01T15:14:12.137Z,22.10
2019-03-01T15:16:43.278Z,20.43
2019-03-01T15:19:11.000Z,20.63
2019-03-01T15:21:38.435Z,21.70
2019-03-01T15:24:05.181Z,20.10
2019-03-01T15:26:33.867Z,19.27
2019-03-01T15:29:00.675Z,19.10
2019-03-01T15:31:27.700Z,18.07
2019-03-01T15:33:54.599Z,18.63
2019-03-01T15:36:21.457Z,17.90
2019-03-01T15:38:48.797Z,16.80
2019-03-01T15:41:15.630Z,17.20
2019-03-01T15:43:42.494Z,18.20
2019-03-01T15:46:14.340Z,18.20
2019-03-01T15:48:40.190Z,16.53
2019-03-01T15:51:06.887Z,15.00
2019-03-01T15:53:33.745Z,16.60
2019-03-01T15:56:02.297Z,13.90
2019-03-01T15:58:32.983Z,16.10
2019-03-01T16:01:00.718Z,16.03
2019-03-01T16:03:27.437Z,15.53
2019-03-01T16:05:54.272Z,14.70
2019-03-01T16:08:21.107Z,15.67
2019-03-01T16:10:47.846Z,15.00
2019-03-01T16:13:17.029Z,14.80
2019-03-01T16:15:44.197Z,15.20
2019-03-01T16:18:11.032Z,13.90
2019-03-01T16:20:37.767Z,13.00
2019-03-01T16:23:04.994Z,13.57
2019-03-01T16:25:32.058Z,13.17
2019-03-01T16:27:58.879Z,12.73
2019-03-01T16:30:25.671Z,13.33
2019-03-01T16:32:53.108Z,10.63
2019-03-01T16:35:19.885Z,11.83
2019-03-01T16:37:48.654Z,11.63
2019-03-01T16:40:15.421Z,12.57
2019-03-01T16:42:42.140Z,12.43
2019-03-01T16:45:09.781Z,11.87
2019-03-01T16:47:38.305Z,12.80
2019-03-01T16:50:10.091Z,13.80
2019-03-01T16:52:42.745Z,12.53
2019-03-01T16:55:13.821Z,13.60
2019-03-01T16:57:40.564Z,13.20
2019-03-01T17:00:09.947Z,13.63
2019-03-01T17:02:38.655Z,12.17
2019-03-01T17:05:06.762Z,12.20
2019-03-01T17:07:34.749Z,12.90
2019-03-01T17:10:02.088Z,12.60
2019-03-01T17:12:28.852Z,14.30
2019-03-01T17:14:56.040Z,12.90
2019-03-01T17:17:25.633Z,12.73
2019-03-01T17:19:53.283Z,12.37
2019-03-01T17:22:23.159Z,12.67
2019-03-01T17:24:51.285Z,13.20
2019-03-01T17:27:18.997Z,12.30
2019-03-01T17:29:48.189Z,12.77
2019-03-01T17:32:14.989Z,12.70
2019-03-01T17:34:41.787Z,13.47
2019-03-01T17:37:08.528Z,13.43
2019-03-01T17:39:35.541Z,11.63
2019-03-01T17:42:02.259Z,12.30
2019-03-01T17:44:28.945Z,11.23
2019-03-01T17:46:55.697Z,10.83
2019-03-01T17:49:22.916Z,14.33
2019-03-01T17:51:49.642Z,14.43
2019-03-01T17:54:19.018Z,12.43
2019-03-01T17:56:45.059Z,13.87
2019-03-01T17:59:13.028Z,14.60
2019-03-01T18:01:40.342Z,12.13
2019-03-01T18:04:07.507Z,11.63
2019-03-01T18:06:37.209Z,11.80
2019-03-01T18:09:04.914Z,10.80
2019-03-01T18:11:44.494Z,11.20
2019-03-01T18:14:16.482Z,11.70
2019-03-01T18:16:43.559Z,10.83
2019-03-01T18:19:11.062Z,11.50
2019-03-01T18:21:37.814Z,10.83
2019-03-01T18:24:04.672Z,11.50
2019-03-01T18:26:31.413Z,12.53
2019-03-01T18:29:00.921Z,11.00
2019-03-01T18:31:27.850Z,11.53
2019-03-01T18:33:57.338Z,11.70
2019-03-01T18:36:24.223Z,11.73
2019-03-01T18:38:50.931Z,10.40
2019-03-01T18:41:17.787Z,11.30
2019-03-01T18:43:45.820Z,10.30
2019-03-01T18:46:14.612Z,8.73
2019-03-01T18:48:44.053Z,10.23
2019-03-01T18:51:12.023Z,10.33
2019-03-01T18:53:40.739Z,10.20
2019-03-01T18:56:07.500Z,9.83
2019-03-01T18:58:34.201Z,10.60
2019-03-01T19:01:01.247Z,11.00
2019-03-01T19:03:30.986Z,11.30
2019-03-01T19:05:57.700Z,10.90
2019-03-01T19:08:26.452Z,10.87
2019-03-01T19:10:54.429Z,10.33
2019-03-01T19:13:24.431Z,11.33
2019-03-01T19:15:54.322Z,9.60
2019-03-01T19:18:21.678Z,11.07
2019-03-01T19:20:49.313Z,12.23
2019-03-01T19:23:20.657Z,11.60
2019-03-01T19:25:47.320Z,11.60
2019-03-01T19:28:14.029Z,12.50
2019-03-01T19:30:40.765Z,11.80
2019-03-01T19:33:07.471Z,13.00
2019-03-01T19:35:35.058Z,12.20
2019-03-01T19:38:01.882Z,12.10
2019-03-01T19:40:28.610Z,12.10
2019-03-01T19:42:57.315Z,12.07
2019-03-01T19:45:24.234Z,12.33
2019-03-01T19:47:51.014Z,12.40
2019-03-01T19:50:17.870Z,11.57
2019-03-01T19:52:47.101Z,12.33
2019-03-01T19:55:13.423Z,11.90
2019-03-01T19:57:40.150Z,13.30
2019-03-01T20:00:12.209Z,11.10
2019-03-01T20:02:38.910Z,12.93
2019-03-01T20:05:07.530Z,11.80
2019-03-01T20:07:34.284Z,11.90
2019-03-01T20:10:01.374Z,12.10
2019-03-01T20:12:28.163Z,11.37
2019-03-01T20:14:54.833Z,11.23
2019-03-01T20:17:21.691Z,12.03
2019-03-01T20:19:49.179Z,10.23
2019-03-01T20:22:18.661Z,11.30
2019-03-01T20:24:46.348Z,10.63
2019-03-01T20:27:13.125Z,10.30
2019-03-01T20:29:39.866Z,10.40
2019-03-01T20:32:06.617Z,10.60
2019-03-01T20:34:37.970Z,9.93
2019-03-01T20:37:05.179Z,10.47
2019-03-01T20:39:34.447Z,10.50
2019-03-01T20:42:01.252Z,8.87
2019-03-01T20:44:27.963Z,10.13
2019-03-01T20:46:54.645Z,10.23
2019-03-01T20:49:21.585Z,11.00
2019-03-01T20:51:48.316Z,10.10
2019-03-01T20:54:15.265Z,10.50
2019-03-01T20:56:48.035Z,10.07
2019-03-01T20:59:15.379Z,9.83
2019-03-01T21:01:42.427Z,10.03
2019-03-01T21:04:09.146Z,9.40
2019-03-01T21:06:37.382Z,10.70
2019-03-01T21:09:07.006Z,9.07
2019-03-01T21:11:33.619Z,11.47
2019-03-01T21:14:00.341Z,10.20
2019-03-01T21:16:27.577Z,11.57
2019-03-01T21:18:54.293Z,10.63
2019-03-01T21:21:21.124Z,10.00
2019-03-01T21:23:51.010Z,10.20
2019-03-01T21:26:17.268Z,9.47
2019-03-01T21:28:44.193Z,9.07
2019-03-01T21:31:11.014Z,10.00
2019-03-01T21:33:37.761Z,10.07
2019-03-01T21:36:04.486Z,11.17
2019-03-01T21:38:31.454Z,10.70
2019-03-01T21:40:58.149Z,9.50
2019-03-01T21:43:30.604Z,10.60
2019-03-01T21:45:59.025Z,10.20
2019-03-01T21:48:26.578Z,10.60
2019-03-01T21:50:53.380Z,9.50
2019-03-01T21:53:20.122Z,9.87
2019-03-01T21:55:46.840Z,9.60
2019-03-01T21:58:13.705Z,9.90
2019-03-01T22:00:40.396Z,9.87
2019-03-01T22:03:07.494Z,9.90
2019-03-01T22:05:34.931Z,11.10
2019-03-01T22:08:01.654Z,10.77
2019-03-01T22:10:31.520Z,12.00
2019-03-01T22:13:00.476Z,10.73
2019-03-01T22:15:27.127Z,10.30
2019-03-01T22:17:54.165Z,10.77
2019-03-01T22:20:21.529Z,10.10
2019-03-01T22:22:49.608Z,11.00
2019-03-01T22:25:16.333Z,11.03
2019-03-01T22:27:43.069Z,10.30
2019-03-01T22:30:12.510Z,11.10
2019-03-01T22:32:42.355Z,11.30
2019-03-01T22:35:09.508Z,13.07
2019-03-01T22:37:38.456Z,11.30
2019-03-01T22:40:06.689Z,11.73
2019-03-01T22:42:33.555Z,11.33
2019-03-01T22:45:02.604Z,11.27
2019-03-01T22:47:32.486Z,12.50
2019-03-01T22:50:00.042Z,11.90
2019-03-01T22:52:30.426Z,11.00
2019-03-01T22:55:01.589Z,11.60
2019-03-01T22:57:26.749Z,10.97
2019-03-01T22:59:56.762Z,10.83
2019-03-01T23:02:26.227Z,12.47
2019-03-01T23:04:53.061Z,12.43
2019-03-01T23:07:23.546Z,12.30
2019-03-01T23:09:50.568Z,12.30
2019-03-01T23:12:17.269Z,11.13
2019-03-01T23:14:44.097Z,10.97
2019-03-01T23:17:10.799Z,12.63
2019-03-01T23:19:39.171Z,11.67
2019-03-01T23:22:07.635Z,11.27
2019-03-01T23:24:35.176Z,11.33
2019-03-01T23:27:02.437Z,12.47
2019-03-01T23:29:29.472Z,10.87
2019-03-01T23:31:56.139Z,12.37
2019-03-01T23:34:22.871Z,11.80
2019-03-01T23:36:49.559Z,12.10
2019-03-01T23:39:16.275Z,12.20
2019-03-01T23:41:43.482Z,11.63
2019-03-01T23:44:12.883Z,11.40
2019-03-01T23:46:39.846Z,11.40
2019-03-01T23:49:06.840Z,11.33
2019-03-01T23:51:33.547Z,12.33
2019-03-01T23:54:00.267Z,11.40
2019-03-01T23:56:29.748Z,12.30
2019-03-01T23:58:55.577Z,12.20
